Time;durP1;ratioP1;P1;durP2;ratioP2;P2;SDS_P1;SDS_P2;PMS_P1;PMS_P2;Temp;Humidity;BMP_temperature;BMP_pressure;BME280_temperature;BME280_humidity;BME280_pressure;Samples;Min_cycle;Max_cycle;Signal;HPM_P1;HPM_P2
2023/03/30 00:00:44;;;;;;;10.23;2.87;;;14.10;99.90;;;;;;4975792;28;20211;-41
2023/03/30 00:03:10;;;;;;;10.87;2.73;;;14.10;99.90;;;;;;4975944;28;20184;-41
2023/03/30 00:05:37;;;;;;;11.07;2.60;;;14.10;99.90;;;;;;4959436;28;20273;-40
2023/03/30 00:08:04;;;;;;;10.23;2.90;;;14.20;99.90;;;;;;4991668;28;20202;-41
2023/03/30 00:10:30;;;;;;;12.80;2.40;;;14.20;99.90;;;;;;4975498;28;20193;-41
2023/03/30 00:12:56;;;;;;;15.33;3.27;;;14.20;99.90;;;;;;4975725;28;20262;-41
2023/03/30 00:15:23;;;;;;;10.10;2.80;;;14.20;99.90;;;;;;4975002;28;20279;-41
2023/03/30 00:17:53;;;;;;;7.70;2.77;;;14.30;99.90;;;;;;4975343;28;20195;-41
2023/03/30 00:20:20;;;;;;;15.13;2.97;;;14.30;99.90;;;;;;4993210;28;20188;-41
2023/03/30 00:22:46;;;;;;;7.83;2.60;;;14.30;99.90;;;;;;4993062;28;20203;-41
2023/03/30 00:25:14;;;;;;;8.50;2.83;;;14.20;99.90;;;;;;4992647;28;20208;-41
2023/03/30 00:27:41;;;;;;;8.40;2.87;;;14.20;99.90;;;;;;4992735;28;20180;-41
2023/03/30 00:30:10;;;;;;;10.93;2.70;;;14.20;99.90;;;;;;4973948;28;20278;-41
2023/03/30 00:32:36;;;;;;;7.87;2.47;;;14.20;99.90;;;;;;4990912;28;20214;-42
2023/03/30 00:35:04;;;;;;;11.73;3.27;;;14.20;99.90;;;;;;4992593;28;20255;-41
2023/03/30 00:37:30;;;;;;;13.77;2.40;;;14.30;99.90;;;;;;4958979;28;20187;-40
2023/03/30 00:39:55;;;;;;;10.00;2.53;;;14.30;99.90;;;;;;4975052;28;20200;-41
2023/03/30 00:42:22;;;;;;;11.80;3.23;;;14.30;99.90;;;;;;4975120;28;20179;-41
2023/03/30 00:45:17;;;;;;;9.77;2.50;;;14.30;99.90;;;;;;4990731;28;20191;-41
2023/03/30 00:48:00;;;;;;;6.00;2.80;;;14.30;99.90;;;;;;4991133;28;20176;-41
2023/03/30 00:50:53;;;;;;;11.10;2.57;;;14.20;99.90;;;;;;4991376;28;20180;-39
2023/03/30 00:53:21;;;;;;;10.50;2.73;;;14.20;99.90;;;;;;4964861;28;20184;-41
2023/03/30 00:55:49;;;;;;;11.10;2.40;;;14.30;99.90;;;;;;4990506;28;20188;-41
2023/03/30 00:58:18;;;;;;;8.00;2.40;;;14.20;99.90;;;;;;4974646;28;20334;-42
2023/03/30 01:00:47;;;;;;;11.63;2.70;;;14.20;99.90;;;;;;4974515;28;20247;-41
2023/03/30 01:03:31;;;;;;;6.57;2.03;;;14.10;99.90;;;;;;4974711;28;20180;-42
2023/03/30 01:06:00;;;;;;;5.30;1.93;;;14.00;99.90;;;;;;4990211;28;20223;-40
2023/03/30 01:08:33;;;;;;;7.53;2.47;;;14.00;99.90;;;;;;4973307;28;20274;-41
2023/03/30 01:11:05;;;;;;;8.90;2.13;;;13.90;99.90;;;;;;4990734;28;20180;-42
2023/03/30 01:13:37;;;;;;;8.90;2.73;;;13.90;99.90;;;;;;4974329;28;20231;-41
2023/03/30 01:16:12;;;;;;;6.87;2.30;;;13.80;99.90;;;;;;4958459;28;20219;-41
2023/03/30 01:18:54;;;;;;;6.23;2.50;;;13.80;99.90;;;;;;4991930;28;20264;-41
2023/03/30 01:21:31;;;;;;;9.37;2.33;;;13.70;99.90;;;;;;4958327;28;20211;-42
2023/03/30 01:24:06;;;;;;;11.77;2.67;;;13.70;99.90;;;;;;4991753;28;20249;-41
2023/03/30 01:26:47;;;;;;;13.27;2.83;;;13.70;99.90;;;;;;4974179;28;20285;-39
2023/03/30 01:29:35;;;;;;;5.67;2.27;;;13.60;99.90;;;;;;4991822;28;20199;-42
2023/03/30 01:32:25;;;;;;;12.63;2.60;;;13.60;99.90;;;;;;4974210;28;20188;-41
2023/03/30 01:35:21;;;;;;;9.00;2.20;;;13.60;99.90;;;;;;4991796;28;20195;-42
2023/03/30 01:38:13;;;;;;;9.70;2.63;;;13.60;99.90;;;;;;4990490;28;20180;-43
2023/03/30 01:40:53;;;;;;;8.77;2.33;;;13.50;99.90;;;;;;4990520;28;20182;-40
2023/03/30 01:43:29;;;;;;;6.90;2.40;;;13.50;99.90;;;;;;4974312;28;20260;-42
2023/03/30 01:46:29;;;;;;;11.87;3.13;;;13.50;99.90;;;;;;4974347;28;20215;-41
2023/03/30 01:49:07;;;;;;;10.77;3.07;;;13.50;99.90;;;;;;4974209;28;20686;-42
2023/03/30 01:51:39;;;;;;;9.70;2.43;;;13.40;99.90;;;;;;4990269;28;20214;-42
2023/03/30 01:54:28;;;;;;;7.20;2.53;;;13.40;99.90;;;;;;4974158;28;20295;-42
2023/03/30 01:57:08;;;;;;;8.60;2.90;;;13.30;99.90;;;;;;4973555;28;20226;-40
2023/03/30 01:59:46;;;;;;;9.30;2.73;;;13.30;99.90;;;;;;4971750;28;20207;-41
2023/03/30 02:02:14;;;;;;;12.83;3.40;;;13.20;99.90;;;;;;4955927;28;20191;-41
2023/03/30 02:04:41;;;;;;;10.00;3.00;;;13.10;99.90;;;;;;4955019;28;20184;-42
2023/03/30 02:07:14;;;;;;;11.00;3.03;;;13.10;99.90;;;;;;4954613;28;20208;-42
2023/03/30 02:09:42;;;;;;;8.33;2.70;;;13.10;99.90;;;;;;4955061;28;20217;-43
2023/03/30 02:12:10;;;;;;;9.27;2.53;;;13.00;99.90;;;;;;4972101;28;20185;-43
2023/03/30 02:14:39;;;;;;;9.77;2.60;;;12.90;99.90;;;;;;4954536;28;20219;-43
2023/03/30 02:17:12;;;;;;;10.47;2.73;;;12.90;99.90;;;;;;4954666;28;20185;-43
2023/03/30 02:19:38;;;;;;;11.23;2.70;;;12.90;99.90;;;;;;4954789;28;20211;-43
2023/03/30 02:22:05;;;;;;;9.73;2.67;;;12.80;99.90;;;;;;4954500;28;20184;-42
2023/03/30 02:24:32;;;;;;;12.63;2.90;;;12.80;99.90;;;;;;4954382;28;20216;-43
2023/03/30 02:27:00;;;;;;;8.43;2.80;;;12.80;99.90;;;;;;4969951;28;20258;-42
2023/03/30 02:29:27;;;;;;;9.93;2.90;;;12.70;99.90;;;;;;4973957;28;20212;-43
2023/03/30 02:31:56;;;;;;;10.40;2.97;;;12.80;99.90;;;;;;4973613;28;20184;-42
2023/03/30 02:34:42;;;;;;;10.53;2.60;;;12.80;99.90;;;;;;4989983;28;20180;-44
2023/03/30 02:37:18;;;;;;;12.60;2.93;;;12.80;99.90;;;;;;4989983;28;20238;-40
2023/03/30 02:40:12;;;;;;;9.63;2.83;;;12.80;99.90;;;;;;4991204;28;20214;-41
2023/03/30 02:42:47;;;;;;;14.03;3.10;;;12.80;99.90;;;;;;4989632;28;20255;-42
2023/03/30 02:45:19;;;;;;;13.17;2.90;;;12.80;99.90;;;;;;4973408;28;20212;-42
2023/03/30 02:47:57;;;;;;;14.33;3.07;;;12.80;99.90;;;;;;4973728;28;20225;-42
2023/03/30 02:50:30;;;;;;;10.10;3.23;;;12.90;99.90;;;;;;4974004;28;20198;-41
2023/03/30 02:53:03;;;;;;;13.73;2.83;;;12.80;99.90;;;;;;4990189;28;20183;-39
2023/03/30 02:55:49;;;;;;;10.50;3.10;;;12.80;99.90;;;;;;4974625;28;20330;-41
2023/03/30 02:58:48;;;;;;;9.47;3.20;;;12.70;99.90;;;;;;4985941;28;20230;-41
2023/03/30 03:01:24;;;;;;;12.77;3.17;;;12.70;99.90;;;;;;4992979;28;20233;-40
2023/03/30 03:03:57;;;;;;;11.57;3.30;;;12.80;99.90;;;;;;4977036;28;20274;-40
2023/03/30 03:06:26;;;;;;;11.00;3.50;;;12.70;99.90;;;;;;4976772;28;20240;-42
2023/03/30 03:08:55;;;;;;;12.13;3.43;;;12.60;99.90;;;;;;4993066;28;20218;-41
2023/03/30 03:11:24;;;;;;;8.80;3.07;;;12.60;99.90;;;;;;4977448;28;20251;-42
2023/03/30 03:13:51;;;;;;;12.43;3.73;;;12.60;99.90;;;;;;4992933;28;20191;-42
2023/03/30 03:16:17;;;;;;;15.23;3.90;;;12.60;99.90;;;;;;4976591;28;20187;-43
2023/03/30 03:19:07;;;;;;;16.87;6.40;;;12.60;99.90;;;;;;4976695;28;20262;-43
2023/03/30 03:21:33;;;;;;;14.70;5.30;;;12.50;99.90;;;;;;4976646;28;20179;-43
2023/03/30 03:23:59;;;;;;;14.37;5.90;;;12.50;99.90;;;;;;4960522;28;20230;-43
2023/03/30 03:26:40;;;;;;;9.77;4.80;;;12.50;99.90;;;;;;4976299;28;20206;-43
2023/03/30 03:29:06;;;;;;;12.23;4.40;;;12.40;99.90;;;;;;4976087;28;20202;-43
2023/03/30 03:31:32;;;;;;;11.93;3.80;;;12.40;99.90;;;;;;4960021;28;20267;-44
2023/03/30 03:33:58;;;;;;;12.60;3.47;;;12.40;99.90;;;;;;4975651;28;20187;-42
2023/03/30 03:36:42;;;;;;;13.23;3.90;;;12.20;99.90;;;;;;4988199;28;20186;-43
2023/03/30 03:39:08;;;;;;;12.77;3.43;;;12.20;99.90;;;;;;4990749;28;20208;-44
2023/03/30 03:41:34;;;;;;;13.30;3.37;;;12.10;99.90;;;;;;4972665;28;20187;-42
2023/03/30 03:44:01;;;;;;;9.33;3.57;;;12.00;99.90;;;;;;4990736;28;20187;-44
2023/03/30 03:46:27;;;;;;;14.17;3.30;;;11.90;99.90;;;;;;4974504;28;20598;-42
2023/03/30 03:48:53;;;;;;;17.30;4.00;;;11.90;99.90;;;;;;4975898;28;20248;-42
2023/03/30 03:51:19;;;;;;;12.57;3.77;;;11.90;99.90;;;;;;4976422;28;20183;-43
2023/03/30 03:53:47;;;;;;;11.97;2.97;;;12.00;99.90;;;;;;4993044;28;20249;-43
2023/03/30 03:56:13;;;;;;;12.73;3.57;;;12.00;99.90;;;;;;4976356;28;20237;-43
2023/03/30 03:58:39;;;;;;;12.97;3.10;;;12.00;99.90;;;;;;4992063;28;20211;-43
2023/03/30 04:01:06;;;;;;;8.43;2.97;;;12.00;99.90;;;;;;4992976;28;20269;-43
2023/03/30 04:03:31;;;;;;;9.87;3.80;;;12.00;99.90;;;;;;4992382;28;20278;-42
2023/03/30 04:05:59;;;;;;;8.67;2.93;;;12.00;99.90;;;;;;4992136;28;20214;-42
2023/03/30 04:08:25;;;;;;;9.67;3.20;;;12.00;99.90;;;;;;4975563;28;20248;-43
2023/03/30 04:10:55;;;;;;;10.60;3.20;;;11.90;99.90;;;;;;4959980;28;20712;-43
2023/03/30 04:13:44;;;;;;;9.90;3.33;;;11.80;99.90;;;;;;4980413;28;20266;-41
2023/03/30 04:16:29;;;;;;;8.43;3.37;;;11.80;99.90;;;;;;4992170;28;20194;-43
2023/03/30 04:19:30;;;;;;;9.60;4.27;;;11.80;99.90;;;;;;4959363;28;20211;-42
2023/03/30 04:22:18;;;;;;;9.60;3.20;;;11.80;99.90;;;;;;4991993;28;20210;-43
2023/03/30 04:25:04;;;;;;;14.10;3.90;;;11.80;99.90;;;;;;4977644;28;20221;-43
2023/03/30 04:27:53;;;;;;;17.67;4.03;;;11.70;99.90;;;;;;4973065;28;20269;-42
2023/03/30 04:30:39;;;;;;;11.43;3.97;;;11.70;99.90;;;;;;4992819;28;20198;-43
2023/03/30 04:33:25;;;;;;;11.80;3.70;;;11.70;99.90;;;;;;4992189;28;20313;-43
2023/03/30 04:36:16;;;;;;;13.57;3.60;;;11.70;99.90;;;;;;4977829;28;20209;-42
2023/03/30 04:39:05;;;;;;;14.60;3.80;;;11.70;99.90;;;;;;4977718;28;20234;-42
2023/03/30 04:42:01;;;;;;;11.43;3.40;;;11.70;99.90;;;;;;4984243;28;20214;-43
2023/03/30 04:44:51;;;;;;;16.37;3.70;;;11.60;99.90;;;;;;4971820;28;20189;-42
2023/03/30 04:47:46;;;;;;;14.10;3.50;;;11.60;99.90;;;;;;4979523;28;20186;-43
2023/03/30 04:50:30;;;;;;;8.93;3.00;;;11.50;99.90;;;;;;4975860;28;20228;-43
2023/03/30 04:53:16;;;;;;;10.50;3.57;;;11.60;99.90;;;;;;4990361;28;20195;-42
2023/03/30 04:56:02;;;;;;;9.77;3.10;;;11.60;99.90;;;;;;4944505;28;20208;-42
2023/03/30 04:58:40;;;;;;;12.37;3.63;;;11.50;99.90;;;;;;4980905;28;20202;-42
2023/03/30 05:01:23;;;;;;;11.00;3.60;;;11.50;99.90;;;;;;4974285;28;20185;-42
2023/03/30 05:04:07;;;;;;;10.70;3.93;;;11.50;99.90;;;;;;4989553;28;20177;-43
2023/03/30 05:07:03;;;;;;;8.27;3.27;;;11.50;99.90;;;;;;4949596;28;20221;-42
2023/03/30 05:09:41;;;;;;;13.93;4.10;;;11.40;99.90;;;;;;4979294;28;20208;-43
2023/03/30 05:12:26;;;;;;;13.57;3.87;;;11.40;99.90;;;;;;4990586;28;20183;-43
2023/03/30 05:15:11;;;;;;;21.50;4.10;;;11.30;99.90;;;;;;4982192;28;20179;-43
2023/03/30 05:17:55;;;;;;;22.50;8.03;;;11.30;99.90;;;;;;4988302;28;20239;-42
2023/03/30 05:20:57;;;;;;;12.93;4.90;;;11.40;99.90;;;;;;4972516;28;20186;-41
2023/03/30 05:23:35;;;;;;;10.60;3.50;;;11.30;99.90;;;;;;4980577;28;20264;-42
2023/03/30 05:26:03;;;;;;;8.40;3.67;;;11.20;99.90;;;;;;4980655;28;20231;-42
2023/03/30 05:28:46;;;;;;;9.90;3.80;;;11.30;99.90;;;;;;4972651;28;20194;-43
2023/03/30 05:31:33;;;;;;;11.47;3.63;;;11.30;99.90;;;;;;4975282;28;20205;-42
2023/03/30 05:34:31;;;;;;;12.53;4.07;;;11.30;99.90;;;;;;4970673;28;20186;-43
2023/03/30 05:37:08;;;;;;;11.87;4.17;;;11.30;99.90;;;;;;4971777;28;20197;-42
2023/03/30 05:39:35;;;;;;;11.17;3.50;;;11.30;99.90;;;;;;4979648;28;20194;-42
2023/03/30 05:42:23;;;;;;;10.83;3.80;;;11.30;99.90;;;;;;4975600;28;20202;-43
2023/03/30 05:44:58;;;;;;;16.57;6.93;;;11.40;99.90;;;;;;4957525;28;20193;-43
2023/03/30 05:47:42;;;;;;;17.07;8.17;;;11.40;99.90;;;;;;4990856;28;20260;-43
2023/03/30 05:50:20;;;;;;;17.80;5.00;;;11.40;99.90;;;;;;4987662;28;20177;-43
2023/03/30 05:52:52;;;;;;;14.27;4.03;;;11.40;99.90;;;;;;4988350;28;20178;-43
2023/03/30 05:55:46;;;;;;;12.60;4.50;;;11.40;99.90;;;;;;4986042;28;20245;-42
2023/03/30 05:58:38;;;;;;;14.27;4.10;;;11.40;99.90;;;;;;4986032;28;20207;-42
2023/03/30 06:01:14;;;;;;;10.90;3.63;;;11.40;99.90;;;;;;4973777;28;20185;-42
2023/03/30 06:03:43;;;;;;;8.13;3.63;;;11.40;99.90;;;;;;4993057;28;20357;-41
2023/03/30 06:06:11;;;;;;;13.10;3.83;;;11.40;99.90;;;;;;5010668;28;20212;-42
2023/03/30 06:08:37;;;;;;;9.27;3.60;;;11.40;99.90;;;;;;4976587;28;20207;-42
2023/03/30 06:11:05;;;;;;;12.67;3.60;;;11.50;99.90;;;;;;5009735;28;20219;-42
2023/03/30 06:13:51;;;;;;;12.53;3.77;;;11.50;99.90;;;;;;4978653;28;20201;-40
2023/03/30 06:16:17;;;;;;;13.37;4.17;;;11.70;99.90;;;;;;4977044;28;20180;-42
2023/03/30 06:18:43;;;;;;;15.33;3.40;;;12.00;99.90;;;;;;5010979;28;20236;-42
2023/03/30 06:21:12;;;;;;;18.37;4.13;;;12.10;99.90;;;;;;4993196;28;20275;-41
2023/03/30 06:23:55;;;;;;;16.63;4.33;;;12.10;99.90;;;;;;4993018;28;20180;-40
2023/03/30 06:26:23;;;;;;;17.70;5.47;;;12.20;99.90;;;;;;4981015;28;20228;-42
2023/03/30 06:28:50;;;;;;;14.47;4.53;;;12.20;99.90;;;;;;4970551;28;20203;-40
2023/03/30 06:31:16;;;;;;;10.60;4.00;;;12.20;99.90;;;;;;4957072;28;20234;-40
2023/03/30 06:33:43;;;;;;;13.30;4.50;;;12.20;99.90;;;;;;4957824;28;20212;-41
2023/03/30 06:36:12;;;;;;;14.97;4.80;;;12.20;99.90;;;;;;4966425;28;20277;-41
2023/03/30 06:38:38;;;;;;;14.07;4.13;;;12.10;99.90;;;;;;4993208;28;20269;-42
2023/03/30 06:41:08;;;;;;;12.13;3.90;;;12.10;99.90;;;;;;4992970;28;20181;-40
2023/03/30 06:43:37;;;;;;;12.50;3.63;;;12.10;99.90;;;;;;4974669;28;20218;-41
2023/03/30 06:46:12;;;;;;;13.03;3.37;;;12.20;99.90;;;;;;4976698;28;20213;-41
2023/03/30 06:48:42;;;;;;;16.27;4.43;;;12.20;99.90;;;;;;4986055;28;20197;-42
2023/03/30 06:51:27;;;;;;;9.37;3.40;;;12.30;99.90;;;;;;4992102;28;20191;-39
2023/03/30 06:53:55;;;;;;;11.57;3.47;;;12.40;99.90;;;;;;4976694;28;20172;-41
2023/03/30 06:56:21;;;;;;;11.43;3.50;;;12.50;99.90;;;;;;4993721;28;20180;-41
2023/03/30 06:59:04;;;;;;;10.40;3.83;;;12.60;99.90;;;;;;4991265;28;20199;-40
2023/03/30 07:01:32;;;;;;;10.20;3.50;;;12.70;99.90;;;;;;4961149;28;20207;-41
2023/03/30 07:04:16;;;;;;;8.23;3.40;;;12.70;99.90;;;;;;4962598;28;20187;-40
2023/03/30 07:07:02;;;;;;;13.37;3.43;;;12.60;99.90;;;;;;4993924;28;20309;-43
2023/03/30 07:09:29;;;;;;;11.37;3.17;;;12.60;99.90;;;;;;4976903;28;20207;-43
2023/03/30 07:11:56;;;;;;;10.93;3.60;;;12.60;99.90;;;;;;4993159;28;20179;-43
2023/03/30 07:14:22;;;;;;;10.27;3.83;;;12.60;99.90;;;;;;4976659;28;20322;-43
2023/03/30 07:16:49;;;;;;;9.53;3.60;;;12.70;99.90;;;;;;4993641;28;20207;-43
2023/03/30 07:19:15;;;;;;;11.47;3.23;;;12.60;99.90;;;;;;4992601;28;20766;-43
2023/03/30 07:21:42;;;;;;;12.30;3.93;;;12.70;99.90;;;;;;4994149;28;20242;-43
2023/03/30 07:24:12;;;;;;;10.63;3.50;;;12.70;99.90;;;;;;4960797;28;20193;-43
2023/03/30 07:26:39;;;;;;;13.13;3.33;;;12.70;99.90;;;;;;4975756;28;20208;-43
2023/03/30 07:29:08;;;;;;;11.10;3.83;;;12.70;99.90;;;;;;4964106;28;20199;-43
2023/03/30 07:31:36;;;;;;;10.27;3.40;;;12.70;99.90;;;;;;4962411;28;20248;-43
2023/03/30 07:34:03;;;;;;;11.43;3.20;;;12.80;99.90;;;;;;4976339;28;20183;-42
2023/03/30 07:36:34;;;;;;;13.07;3.70;;;12.80;99.90;;;;;;4976258;28;20190;-44
2023/03/30 07:39:00;;;;;;;13.90;3.67;;;12.90;99.90;;;;;;4991763;28;20200;-43
2023/03/30 07:41:28;;;;;;;14.20;3.30;;;12.90;99.90;;;;;;4959047;28;20192;-43
2023/03/30 07:43:57;;;;;;;8.50;3.20;;;13.00;99.90;;;;;;4960043;28;20180;-42
2023/03/30 07:46:23;;;;;;;9.17;2.90;;;13.00;99.90;;;;;;4992176;28;20219;-42
2023/03/30 07:48:51;;;;;;;12.20;3.20;;;13.10;99.90;;;;;;4976305;28;20643;-44
2023/03/30 07:51:19;;;;;;;12.33;3.47;;;13.20;99.90;;;;;;4960337;28;20188;-43
2023/03/30 07:54:01;;;;;;;11.10;2.93;;;13.20;99.90;;;;;;4975927;28;20227;-43
2023/03/30 07:56:38;;;;;;;8.03;2.80;;;13.20;99.90;;;;;;4975531;28;20230;-44
2023/03/30 07:59:06;;;;;;;8.83;3.30;;;13.20;99.90;;;;;;4993610;28;20196;-43
2023/03/30 08:01:35;;;;;;;8.53;2.97;;;13.20;99.90;;;;;;4976320;28;20184;-44
2023/03/30 08:04:14;;;;;;;10.43;2.87;;;13.20;99.90;;;;;;4993646;28;20191;-41
2023/03/30 08:06:40;;;;;;;7.03;3.00;;;13.20;99.90;;;;;;4959669;28;20216;-43
2023/03/30 08:09:07;;;;;;;6.90;3.13;;;13.20;99.90;;;;;;4956347;28;20230;-41
2023/03/30 08:11:34;;;;;;;9.70;3.03;;;13.20;99.90;;;;;;4983509;28;20203;-41
2023/03/30 08:14:02;;;;;;;10.27;2.87;;;13.20;99.90;;;;;;4990545;28;20186;-42
2023/03/30 08:16:29;;;;;;;11.47;3.47;;;13.10;99.90;;;;;;5012776;28;20199;-41
2023/03/30 08:18:55;;;;;;;9.03;3.30;;;13.10;99.90;;;;;;4994907;28;20218;-42
2023/03/30 08:21:24;;;;;;;8.73;3.33;;;13.10;99.90;;;;;;4995026;28;20191;-41
2023/03/30 08:23:56;;;;;;;9.53;4.57;;;13.10;99.90;;;;;;5012477;28;20187;-44
2023/03/30 08:26:22;;;;;;;12.53;5.27;;;13.00;99.90;;;;;;4994852;28;20254;-44
2023/03/30 08:28:48;;;;;;;10.07;3.80;;;13.00;99.90;;;;;;4994994;28;20203;-44
2023/03/30 08:31:16;;;;;;;8.27;3.43;;;12.90;99.90;;;;;;4994836;28;20177;-43
2023/03/30 08:33:45;;;;;;;8.00;2.70;;;12.90;99.90;;;;;;4994309;28;20190;-43
2023/03/30 08:36:11;;;;;;;7.90;3.40;;;12.90;99.90;;;;;;5011157;28;20186;-44
2023/03/30 08:38:38;;;;;;;11.50;4.50;;;12.90;99.90;;;;;;4984965;28;20203;-43
2023/03/30 08:41:26;;;;;;;11.97;5.30;;;12.90;99.90;;;;;;4971400;28;20241;-44
2023/03/30 08:44:15;;;;;;;11.60;5.00;;;13.00;99.90;;;;;;4989831;28;20211;-44
2023/03/30 08:46:42;;;;;;;10.77;4.07;;;13.00;99.90;;;;;;4974832;28;20208;-43
2023/03/30 08:49:16;;;;;;;10.30;3.00;;;13.10;99.90;;;;;;4988158;28;20207;-44
2023/03/30 08:51:43;;;;;;;7.37;2.90;;;13.00;99.90;;;;;;4981353;28;20187;-42
2023/03/30 08:54:15;;;;;;;9.13;3.20;;;13.00;99.90;;;;;;4991306;28;20179;-43
2023/03/30 08:56:56;;;;;;;5.93;2.73;;;13.00;99.90;;;;;;4989291;28;20176;-40
2023/03/30 08:59:31;;;;;;;8.40;3.17;;;13.00;99.90;;;;;;4981297;28;20227;-44
2023/03/30 09:02:07;;;;;;;9.50;4.77;;;13.00;99.90;;;;;;4988642;28;20179;-43
2023/03/30 09:04:57;;;;;;;30.47;14.20;;;13.00;99.90;;;;;;4990707;28;20190;-41
2023/03/30 09:07:27;;;;;;;8.87;4.57;;;12.90;99.90;;;;;;4990273;28;20212;-41
2023/03/30 09:09:56;;;;;;;9.33;3.57;;;12.90;99.90;;;;;;4972074;28;20269;-44
2023/03/30 09:12:42;;;;;;;9.10;3.70;;;12.90;99.90;;;;;;4973159;28;20191;-43
2023/03/30 09:15:25;;;;;;;9.33;2.70;;;12.80;99.90;;;;;;4980694;28;20207;-43
2023/03/30 09:17:59;;;;;;;7.20;2.70;;;12.70;99.90;;;;;;4991214;28;20270;-44
2023/03/30 09:20:29;;;;;;;5.30;2.23;;;12.70;99.90;;;;;;4973578;28;20190;-40
2023/03/30 09:23:00;;;;;;;5.03;2.93;;;12.70;99.90;;;;;;4990338;28;20255;-41
2023/03/30 09:25:49;;;;;;;9.67;2.87;;;12.70;99.90;;;;;;4989438;28;20180;-41
2023/03/30 09:28:22;;;;;;;7.33;2.90;;;12.70;99.90;;;;;;4990894;28;20210;-42
2023/03/30 09:30:50;;;;;;;8.43;3.10;;;12.60;99.90;;;;;;4971022;28;20659;-40
2023/03/30 09:33:48;;;;;;;7.30;3.20;;;12.70;99.90;;;;;;4989486;28;20253;-40
2023/03/30 09:36:52;;;;;;;8.60;3.13;;;12.70;99.90;;;;;;4962615;28;20202;-42
2023/03/30 09:39:20;;;;;;;8.03;2.73;;;12.60;99.90;;;;;;4972985;28;20749;-38
2023/03/30 09:42:04;;;;;;;10.20;3.37;;;12.60;99.90;;;;;;4990744;28;20179;-42
2023/03/30 09:44:48;;;;;;;9.43;3.50;;;12.70;99.90;;;;;;4991254;28;20205;-40
2023/03/30 09:47:28;;;;;;;7.00;3.57;;;12.70;99.90;;;;;;4981718;28;20306;-41
2023/03/30 09:50:00;;;;;;;8.50;4.20;;;12.80;99.90;;;;;;4972473;28;20742;-41
2023/03/30 09:52:29;;;;;;;12.37;5.23;;;12.90;99.90;;;;;;4990898;28;20169;-41
2023/03/30 09:55:01;;;;;;;9.30;4.33;;;12.90;99.90;;;;;;4965111;28;20230;-42
2023/03/30 09:57:31;;;;;;;10.77;4.10;;;13.00;99.90;;;;;;4981620;28;20179;-42
2023/03/30 10:00:01;;;;;;;10.10;4.23;;;13.10;99.90;;;;;;4972350;28;20211;-41
2023/03/30 10:02:31;;;;;;;8.47;4.10;;;13.10;99.90;;;;;;4972858;28;20191;-41
2023/03/30 10:05:01;;;;;;;5.33;3.17;;;13.20;99.90;;;;;;4981817;28;20180;-42
2023/03/30 10:07:41;;;;;;;7.37;3.60;;;13.20;99.90;;;;;;4994644;28;20298;-41
2023/03/30 10:10:20;;;;;;;6.00;3.20;;;13.20;99.90;;;;;;4983549;28;20212;-41
2023/03/30 10:12:49;;;;;;;8.30;3.70;;;13.20;99.90;;;;;;4994621;28;20212;-41
2023/03/30 10:15:18;;;;;;;10.13;5.00;;;13.30;99.90;;;;;;4976552;28;20183;-42
2023/03/30 10:17:50;;;;;;;8.03;4.47;;;13.30;99.90;;;;;;4993227;28;20175;-40
2023/03/30 10:20:27;;;;;;;8.10;3.13;;;13.30;99.90;;;;;;4975943;28;20279;-42
2023/03/30 10:22:58;;;;;;;7.90;3.07;;;13.30;99.90;;;;;;4989608;28;20191;-42
2023/03/30 10:25:28;;;;;;;9.80;3.27;;;13.40;99.90;;;;;;4992855;28;20264;-42
2023/03/30 10:27:57;;;;;;;8.77;3.67;;;13.40;99.90;;;;;;4993551;28;20169;-42
2023/03/30 10:30:27;;;;;;;6.47;3.40;;;13.40;99.90;;;;;;4984906;28;20172;-41
2023/03/30 10:32:57;;;;;;;9.57;3.90;;;13.40;99.90;;;;;;4990302;28;20207;-41
2023/03/30 10:35:36;;;;;;;7.90;3.50;;;13.40;99.90;;;;;;4984406;28;20176;-41
2023/03/30 10:38:05;;;;;;;8.00;3.57;;;13.30;99.90;;;;;;4990208;28;20188;-42
2023/03/30 10:40:37;;;;;;;8.90;3.67;;;13.30;99.90;;;;;;4976001;28;20183;-40
2023/03/30 10:43:07;;;;;;;8.27;3.60;;;13.30;99.90;;;;;;4978919;28;20187;-42
2023/03/30 10:45:43;;;;;;;7.70;3.30;;;13.40;99.90;;;;;;4961709;28;20294;-43
2023/03/30 10:48:21;;;;;;;9.97;3.80;;;13.40;99.90;;;;;;4975718;28;20261;-41
2023/03/30 10:51:16;;;;;;;6.77;4.20;;;13.40;99.90;;;;;;4992710;28;20209;-42
2023/03/30 10:54:02;;;;;;;9.20;3.90;;;13.40;99.90;;;;;;4992084;28;20180;-41
2023/03/30 10:56:40;;;;;;;7.70;3.80;;;13.30;99.90;;;;;;4983899;28;20187;-42
2023/03/30 10:59:22;;;;;;;6.83;3.37;;;13.30;99.90;;;;;;4991119;28;20210;-41
2023/03/30 11:01:55;;;;;;;5.60;3.20;;;13.30;99.90;;;;;;4994553;28;20271;-43
2023/03/30 11:04:34;;;;;;;8.50;3.10;;;13.30;99.90;;;;;;4991250;28;20184;-44
2023/03/30 11:07:01;;;;;;;5.70;3.30;;;13.30;99.90;;;;;;4993727;28;20755;-44
2023/03/30 11:09:38;;;;;;;7.33;3.37;;;13.30;99.90;;;;;;4974897;28;20270;-43
2023/03/30 11:12:09;;;;;;;9.17;3.70;;;13.40;99.90;;;;;;4990714;28;20188;-42
2023/03/30 11:14:54;;;;;;;8.97;3.87;;;13.50;99.90;;;;;;4992987;28;20222;-39
2023/03/30 11:17:35;;;;;;;9.17;3.60;;;13.60;99.90;;;;;;4981753;28;20180;-44
2023/03/30 11:20:15;;;;;;;5.93;3.43;;;13.80;99.90;;;;;;4990553;28;20213;-44
2023/03/30 11:22:51;;;;;;;8.10;3.30;;;13.90;99.90;;;;;;4990742;28;20183;-44
2023/03/30 11:25:29;;;;;;;8.87;3.70;;;14.00;99.90;;;;;;4992142;28;20179;-42
2023/03/30 11:28:05;;;;;;;6.00;2.93;;;14.00;99.90;;;;;;4981005;28;20179;-43
2023/03/30 11:30:35;;;;;;;9.10;3.10;;;14.00;99.90;;;;;;4991203;28;20192;-41
2023/03/30 11:33:26;;;;;;;9.10;2.90;;;13.90;99.90;;;;;;4991304;28;20179;-43
2023/03/30 11:36:00;;;;;;;7.60;3.70;;;13.90;99.90;;;;;;4991111;28;20184;-44
2023/03/30 11:38:40;;;;;;;8.00;3.57;;;14.00;99.90;;;;;;4992274;28;20211;-44
2023/03/30 11:41:15;;;;;;;8.77;4.77;;;13.90;99.90;;;;;;4992596;28;20188;-43
2023/03/30 11:43:42;;;;;;;7.33;3.67;;;14.00;99.90;;;;;;4973132;28;20188;-42
2023/03/30 11:46:17;;;;;;;5.23;3.90;;;13.90;99.90;;;;;;4974715;28;20211;-44
2023/03/30 11:48:56;;;;;;;8.27;4.03;;;13.90;99.90;;;;;;4991882;28;20270;-42
2023/03/30 11:51:44;;;;;;;8.57;3.83;;;13.90;99.90;;;;;;4974505;28;20184;-43
2023/03/30 11:54:47;;;;;;;10.97;4.40;;;13.80;99.90;;;;;;4989208;28;20179;-43
2023/03/30 11:57:48;;;;;;;9.13;3.33;;;13.90;99.90;;;;;;4991659;28;20184;-43
2023/03/30 12:00:29;;;;;;;10.10;4.23;;;13.90;99.90;;;;;;4991600;28;20172;-42
2023/03/30 12:03:15;;;;;;;9.07;3.30;;;13.90;99.90;;;;;;4990870;28;20207;-43
2023/03/30 12:05:47;;;;;;;7.30;3.70;;;13.90;99.90;;;;;;4991057;28;20214;-44
2023/03/30 12:08:42;;;;;;;6.73;3.13;;;13.90;99.90;;;;;;4992381;28;20203;-44
2023/03/30 12:11:39;;;;;;;11.60;3.87;;;13.90;99.90;;;;;;4921094;28;20198;-43
2023/03/30 12:14:43;;;;;;;6.03;3.53;;;13.90;99.90;;;;;;4991569;28;20184;-44
2023/03/30 12:17:33;;;;;;;7.10;3.57;;;13.90;99.90;;;;;;4991318;28;20304;-43
2023/03/30 12:20:08;;;;;;;5.30;3.10;;;14.00;99.90;;;;;;4991644;28;20196;-44
2023/03/30 12:22:44;;;;;;;9.80;3.33;;;13.90;99.90;;;;;;4990193;28;20313;-43
2023/03/30 12:25:16;;;;;;;6.47;3.37;;;14.00;99.90;;;;;;4987757;28;20210;-42
2023/03/30 12:27:59;;;;;;;7.90;3.13;;;14.00;99.90;;;;;;4990255;28;20207;-42
2023/03/30 12:30:40;;;;;;;5.40;3.03;;;14.00;99.90;;;;;;4992351;28;20188;-41
2023/03/30 12:33:24;;;;;;;6.67;3.40;;;14.10;99.90;;;;;;4991850;28;20210;-43
2023/03/30 12:35:51;;;;;;;7.53;3.20;;;14.10;99.90;;;;;;4986333;28;20228;-43
2023/03/30 12:38:24;;;;;;;6.43;3.00;;;14.10;99.90;;;;;;4992230;28;20207;-43
2023/03/30 12:41:14;;;;;;;7.33;3.00;;;14.20;99.90;;;;;;4991909;28;20224;-44
2023/03/30 12:44:05;;;;;;;3.27;2.67;;;14.40;99.90;;;;;;4974756;28;20266;-43
2023/03/30 12:46:42;;;;;;;5.87;2.77;;;14.60;99.90;;;;;;4946344;28;20218;-43
2023/03/30 12:49:23;;;;;;;4.70;2.77;;;15.00;99.90;;;;;;4990495;28;20239;-43
2023/03/30 12:52:08;;;;;;;6.77;2.83;;;15.30;99.90;;;;;;4990355;28;20212;-43
2023/03/30 12:54:40;;;;;;;6.47;2.90;;;15.50;99.90;;;;;;4991956;28;20180;-42
2023/03/30 12:57:11;;;;;;;4.13;2.60;;;15.40;99.90;;;;;;4992128;28;20184;-43
2023/03/30 13:00:04;;;;;;;5.13;2.70;;;15.30;99.90;;;;;;4989830;28;20368;-43
2023/03/30 13:03:08;;;;;;;5.37;2.70;;;15.30;99.90;;;;;;4990132;28;20192;-43
2023/03/30 13:05:54;;;;;;;6.13;3.03;;;15.50;99.90;;;;;;4971519;28;20234;-43
2023/03/30 13:08:37;;;;;;;7.17;2.87;;;15.40;99.90;;;;;;4989901;28;20211;-44
2023/03/30 13:11:13;;;;;;;5.50;2.67;;;15.30;99.90;;;;;;4973525;28;20218;-43
2023/03/30 13:13:56;;;;;;;4.27;2.73;;;15.30;99.90;;;;;;4973905;28;20206;-43
2023/03/30 13:16:49;;;;;;;5.23;2.77;;;15.60;99.90;;;;;;5009124;28;20197;-43
2023/03/30 13:19:21;;;;;;;4.83;2.47;;;15.90;99.90;;;;;;4972659;28;20227;-42
2023/03/30 13:21:53;;;;;;;4.50;2.40;;;15.90;99.90;;;;;;4955421;28;20192;-41
2023/03/30 13:24:31;;;;;;;4.37;2.50;;;15.90;99.90;;;;;;4971851;28;20226;-41
2023/03/30 13:27:32;;;;;;;4.43;2.13;;;16.00;99.90;;;;;;4990323;28;20208;-42